Time;durP1;ratioP1;P1;durP2;ratioP2;P2;SDS_P1;SDS_P2;PMS_P1;PMS_P2;Temp;Humidity;BMP_temperature;BMP_pressure;BME280_temperature;BME280_humidity;BME280_pressure;Samples;Min_cycle;Max_cycle;Signal;HPM_P1;HPM_P2
2022/03/01 00:00:23;;;;;;;5.40;1.88;;;20.80;52.70;;;;;;4972275;28;20745;-56
2022/03/01 00:02:55;;;;;;;4.40;1.80;;;20.80;52.50;;;;;;4971667;28;20291;-56
2022/03/01 00:05:26;;;;;;;3.10;1.60;;;20.90;52.60;;;;;;4972007;28;20225;-53
2022/03/01 00:07:56;;;;;;;6.00;1.92;;;20.90;52.50;;;;;;4972046;28;20225;-56
2022/03/01 00:10:27;;;;;;;4.57;1.80;;;20.90;52.40;;;;;;4971325;28;20206;-53
2022/03/01 00:12:58;;;;;;;6.00;2.13;;;21.00;52.50;;;;;;4972127;28;20206;-55
2022/03/01 00:15:28;;;;;;;5.95;1.92;;;21.00;52.40;;;;;;4971609;28;20655;-56
2022/03/01 00:18:01;;;;;;;3.78;1.65;;;21.00;52.40;;;;;;4971982;28;20195;-56
2022/03/01 00:20:31;;;;;;;4.85;1.80;;;21.00;52.40;;;;;;4970566;28;20694;-56
2022/03/01 00:23:02;;;;;;;4.47;1.50;;;21.10;52.40;;;;;;4971123;28;20198;-56
2022/03/01 00:25:32;;;;;;;4.88;2.10;;;21.10;52.40;;;;;;4971518;28;20202;-54
2022/03/01 00:28:03;;;;;;;5.35;1.70;;;21.10;52.40;;;;;;4972181;28;20237;-55
2022/03/01 00:30:34;;;;;;;4.70;1.70;;;21.20;52.40;;;;;;4971689;28;20202;-57
2022/03/01 00:33:06;;;;;;;4.70;1.95;;;21.20;52.30;;;;;;4971538;28;20429;-56
2022/03/01 00:35:37;;;;;;;5.20;2.10;;;21.20;52.30;;;;;;4971564;28;20269;-53
2022/03/01 00:38:07;;;;;;;3.00;1.80;;;21.20;52.30;;;;;;4971712;28;20253;-55
2022/03/01 00:40:38;;;;;;;4.57;2.03;;;21.20;52.30;;;;;;4970763;28;20222;-56
2022/03/01 00:43:08;;;;;;;3.85;1.63;;;21.20;52.30;;;;;;4971462;28;20223;-54
2022/03/01 00:45:39;;;;;;;3.53;2.08;;;21.30;52.30;;;;;;4971133;28;20193;-55
2022/03/01 00:48:12;;;;;;;4.97;1.98;;;21.30;52.20;;;;;;4970788;28;20639;-56
2022/03/01 00:50:42;;;;;;;6.70;2.10;;;21.30;52.20;;;;;;4969887;28;20281;-56
2022/03/01 00:53:13;;;;;;;3.03;1.70;;;21.40;52.20;;;;;;4969957;28;20562;-51
2022/03/01 00:55:44;;;;;;;3.10;1.60;;;21.40;52.10;;;;;;4970346;28;20698;-53
2022/03/01 00:58:14;;;;;;;3.05;1.58;;;21.40;52.10;;;;;;4971142;28;20254;-55
2022/03/01 01:00:45;;;;;;;2.85;1.67;;;21.40;52.10;;;;;;4971268;28;20273;-55
2022/03/01 01:03:18;;;;;;;4.63;1.70;;;21.40;52.10;;;;;;4970822;28;20195;-55
2022/03/01 01:05:48;;;;;;;4.63;1.90;;;21.50;52.20;;;;;;4970196;28;20257;-56
2022/03/01 01:08:19;;;;;;;2.92;1.58;;;21.50;52.20;;;;;;4970716;28;20252;-55
2022/03/01 01:10:49;;;;;;;5.30;1.50;;;21.60;52.30;;;;;;4970746;28;20217;-54
2022/03/01 01:13:20;;;;;;;3.47;1.63;;;21.60;52.30;;;;;;4971423;28;20199;-54
2022/03/01 01:15:51;;;;;;;3.33;1.40;;;21.60;52.30;;;;;;4970527;28;20257;-53
2022/03/01 01:18:24;;;;;;;3.47;1.67;;;21.60;52.20;;;;;;4970952;28;20202;-50
2022/03/01 01:20:54;;;;;;;5.32;2.10;;;21.60;52.20;;;;;;4982901;23;20292;-57
2022/03/01 01:23:25;;;;;;;5.07;1.80;;;21.70;52.20;;;;;;4970912;28;20256;-54
2022/03/01 01:25:55;;;;;;;2.90;1.60;;;21.70;52.20;;;;;;4970512;28;20205;-55
2022/03/01 01:28:26;;;;;;;3.47;1.40;;;21.70;52.20;;;;;;4970268;28;20651;-57
2022/03/01 01:30:57;;;;;;;4.03;1.83;;;21.80;52.20;;;;;;4969723;28;20615;-54
2022/03/01 01:33:29;;;;;;;3.67;1.80;;;21.80;52.30;;;;;;4969325;28;20222;-52
2022/03/01 01:36:00;;;;;;;3.17;1.20;;;21.80;52.10;;;;;;4969564;28;20206;-56
2022/03/01 01:38:31;;;;;;;3.33;1.70;;;21.80;52.10;;;;;;4970189;28;20202;-56
2022/03/01 01:41:01;;;;;;;3.75;1.90;;;21.90;52.10;;;;;;4970174;28;20229;-56
2022/03/01 01:43:32;;;;;;;3.58;1.50;;;21.90;52.00;;;;;;4969906;28;20639;-56
2022/03/01 01:46:03;;;;;;;5.43;2.00;;;21.90;52.00;;;;;;4970180;28;20213;-57
2022/03/01 01:48:35;;;;;;;3.20;2.10;;;21.90;52.00;;;;;;4970026;28;20666;-56
2022/03/01 01:51:06;;;;;;;4.43;1.98;;;22.00;52.00;;;;;;4969892;28;20593;-59
2022/03/01 01:53:36;;;;;;;3.95;1.83;;;22.00;51.90;;;;;;4970116;28;20209;-58
2022/03/01 01:56:07;;;;;;;3.10;1.52;;;22.00;51.90;;;;;;4969541;28;20268;-52
2022/03/01 01:58:38;;;;;;;3.47;1.90;;;22.00;51.80;;;;;;4970229;28;20198;-57
2022/03/01 02:01:09;;;;;;;4.90;1.80;;;22.10;51.90;;;;;;4970423;28;20221;-52
2022/03/01 02:03:41;;;;;;;4.70;1.77;;;22.10;51.90;;;;;;4970482;28;20194;-57
2022/03/01 02:06:12;;;;;;;3.95;1.52;;;22.10;51.90;;;;;;4969197;28;20194;-55
2022/03/01 02:08:43;;;;;;;3.75;1.70;;;22.10;51.90;;;;;;4970074;28;20199;-56
2022/03/01 02:11:13;;;;;;;3.95;1.63;;;22.20;51.80;;;;;;4969584;28;20218;-56
2022/03/01 02:13:44;;;;;;;3.25;1.70;;;22.20;51.80;;;;;;4969748;28;20190;-54
2022/03/01 02:16:15;;;;;;;3.85;1.75;;;22.20;51.80;;;;;;4969471;28;20190;-55
2022/03/01 02:18:49;;;;;;;3.17;1.42;;;22.20;51.80;;;;;;4969491;28;20198;-56
2022/03/01 02:21:21;;;;;;;4.20;1.70;;;22.20;51.80;;;;;;4981968;23;20228;-58
2022/03/01 02:23:52;;;;;;;3.75;1.63;;;22.30;51.80;;;;;;4969402;28;20194;-56
2022/03/01 02:26:23;;;;;;;3.55;1.45;;;22.30;51.80;;;;;;4969340;28;20201;-58
2022/03/01 02:28:53;;;;;;;1.92;1.25;;;22.30;51.80;;;;;;4969775;28;20273;-58
2022/03/01 02:31:24;;;;;;;3.88;1.77;;;22.30;51.70;;;;;;4968899;28;20296;-55
2022/03/01 02:33:54;;;;;;;3.63;1.40;;;22.30;51.70;;;;;;4969723;28;20722;-55
2022/03/01 02:36:27;;;;;;;2.58;1.55;;;22.40;51.70;;;;;;4969339;28;20194;-55
2022/03/01 02:38:57;;;;;;;3.38;1.48;;;22.40;51.70;;;;;;4969238;28;20198;-55
2022/03/01 02:41:31;;;;;;;2.58;1.25;;;22.40;51.60;;;;;;4969371;28;20288;-53
2022/03/01 02:44:02;;;;;;;4.38;1.65;;;22.50;51.60;;;;;;4973409;28;20265;-52
2022/03/01 02:46:32;;;;;;;3.72;1.40;;;22.50;51.50;;;;;;4973563;28;20225;-53
2022/03/01 02:49:03;;;;;;;3.03;1.50;;;22.50;51.50;;;;;;4973408;28;20216;-54
2022/03/01 02:51:36;;;;;;;4.18;2.00;;;22.50;51.40;;;;;;4973189;28;20218;-53
2022/03/01 02:54:07;;;;;;;4.22;1.55;;;22.60;51.50;;;;;;4973611;28;20202;-55
2022/03/01 02:56:39;;;;;;;3.50;1.50;;;22.60;51.40;;;;;;4972890;28;20277;-51
2022/03/01 02:59:10;;;;;;;3.42;1.55;;;22.60;51.40;;;;;;4973487;28;20205;-56
2022/03/01 03:01:41;;;;;;;3.55;1.52;;;22.70;51.40;;;;;;4972927;28;20276;-51
2022/03/01 03:04:12;;;;;;;3.03;1.23;;;22.70;51.40;;;;;;4973141;28;20224;-57
2022/03/01 03:06:44;;;;;;;4.03;1.65;;;22.70;51.30;;;;;;4972952;28;20650;-58
2022/03/01 03:09:15;;;;;;;3.50;1.50;;;22.80;51.40;;;;;;4972374;28;20194;-58
2022/03/01 03:11:45;;;;;;;3.13;1.63;;;22.80;51.20;;;;;;4973185;28;20214;-58
2022/03/01 03:14:16;;;;;;;2.65;1.60;;;22.80;51.20;;;;;;4972430;28;20201;-56
2022/03/01 03:16:46;;;;;;;2.92;1.40;;;22.80;51.20;;;;;;4972413;28;20210;-57
2022/03/01 03:19:17;;;;;;;2.38;1.52;;;22.90;51.20;;;;;;4972455;28;20206;-57
2022/03/01 03:21:50;;;;;;;2.72;1.45;;;22.90;51.20;;;;;;4972666;28;20230;-50
2022/03/01 03:24:21;;;;;;;4.18;1.73;;;22.90;51.10;;;;;;4971953;28;20257;-55
2022/03/01 03:26:52;;;;;;;2.47;1.35;;;23.00;51.20;;;;;;4973073;28;20202;-55
2022/03/01 03:29:22;;;;;;;2.80;1.40;;;23.00;51.10;;;;;;4972938;28;20217;-56
2022/03/01 03:31:57;;;;;;;3.45;1.63;;;23.00;51.10;;;;;;4972892;28;20710;-54
2022/03/01 03:34:28;;;;;;;3.60;1.83;;;23.00;51.00;;;;;;4972215;28;20218;-54
2022/03/01 03:37:00;;;;;;;2.55;1.42;;;23.10;51.00;;;;;;4971770;28;20202;-55
2022/03/01 03:39:31;;;;;;;1.92;1.20;;;23.10;51.00;;;;;;4971781;28;20198;-49
2022/03/01 03:42:01;;;;;;;3.85;1.63;;;23.20;51.00;;;;;;4971763;28;20289;-55
2022/03/01 03:44:32;;;;;;;3.60;1.52;;;23.10;50.90;;;;;;4972705;28;20194;-52
2022/03/01 03:47:02;;;;;;;2.40;1.35;;;23.20;50.90;;;;;;4971040;28;20249;-55
2022/03/01 03:49:33;;;;;;;3.03;1.55;;;23.20;50.90;;;;;;4972614;28;20202;-54
2022/03/01 03:52:06;;;;;;;5.38;1.70;;;23.20;50.90;;;;;;4972375;28;20257;-53
2022/03/01 03:54:37;;;;;;;3.30;1.80;;;23.20;51.00;;;;;;4971903;28;20202;-53
2022/03/01 03:57:09;;;;;;;2.90;1.40;;;23.30;51.10;;;;;;4971472;28;20725;-53
2022/03/01 03:59:41;;;;;;;3.35;1.30;;;23.30;51.00;;;;;;4972349;28;20521;-50
2022/03/01 04:02:11;;;;;;;3.40;1.65;;;23.30;50.90;;;;;;4972145;28;20583;-53
2022/03/01 04:04:42;;;;;;;3.10;1.42;;;23.40;50.90;;;;;;4971623;28;20631;-55
2022/03/01 04:07:14;;;;;;;3.50;1.80;;;23.40;50.70;;;;;;4972226;28;20844;-55
2022/03/01 04:09:45;;;;;;;4.13;1.67;;;23.40;50.70;;;;;;4971696;28;20198;-55
2022/03/01 04:12:16;;;;;;;4.47;1.77;;;23.50;50.80;;;;;;4971117;28;20269;-52
2022/03/01 04:14:47;;;;;;;3.20;1.70;;;23.50;50.70;;;;;;4971602;28;20198;-53
2022/03/01 04:17:17;;;;;;;2.90;1.38;;;23.50;50.70;;;;;;4970329;28;20199;-51
2022/03/01 04:19:48;;;;;;;3.65;1.60;;;23.50;50.60;;;;;;4971197;28;20249;-55
2022/03/01 04:22:20;;;;;;;4.10;1.83;;;23.60;50.60;;;;;;4985463;23;20226;-55
2022/03/01 04:24:51;;;;;;;4.07;1.73;;;23.60;50.50;;;;;;4970749;28;20202;-53
2022/03/01 04:27:22;;;;;;;3.92;1.63;;;23.60;50.40;;;;;;4971117;28;20209;-55
2022/03/01 04:29:52;;;;;;;4.05;1.70;;;23.70;50.40;;;;;;4971702;28;20253;-56
2022/03/01 04:32:23;;;;;;;3.17;1.50;;;23.70;50.40;;;;;;4971488;28;20218;-56
2022/03/01 04:34:54;;;;;;;5.47;1.70;;;23.80;50.40;;;;;;4971157;28;20213;-56
2022/03/01 04:37:26;;;;;;;4.20;1.83;;;23.80;50.30;;;;;;4970814;28;20261;-56
2022/03/01 04:39:57;;;;;;;3.67;1.70;;;23.80;50.30;;;;;;4971429;28;20190;-55
2022/03/01 04:42:27;;;;;;;4.10;1.90;;;23.80;50.40;;;;;;4970745;28;20230;-55
2022/03/01 04:44:59;;;;;;;4.75;1.77;;;23.90;50.30;;;;;;4971308;28;20265;-56
2022/03/01 04:47:29;;;;;;;3.05;1.80;;;23.90;50.20;;;;;;4971340;28;20257;-56
2022/03/01 04:50:00;;;;;;;4.68;2.00;;;23.90;50.20;;;;;;4971162;28;20203;-55
2022/03/01 04:52:32;;;;;;;4.13;1.88;;;23.90;50.20;;;;;;4971026;28;20229;-57
2022/03/01 04:55:03;;;;;;;4.20;1.60;;;24.00;50.20;;;;;;4970742;28;20210;-55
2022/03/01 04:57:34;;;;;;;2.83;1.50;;;24.00;50.10;;;;;;4970475;28;20194;-56
2022/03/01 05:00:10;;;;;;;3.65;1.75;;;24.00;50.10;;;;;;4970669;28;20206;-56
2022/03/01 05:02:42;;;;;;;3.65;1.75;;;24.00;50.10;;;;;;4969802;28;20292;-57
2022/03/01 05:05:13;;;;;;;3.10;1.65;;;24.00;50.10;;;;;;4970816;28;20241;-57
2022/03/01 05:07:48;;;;;;;5.22;1.85;;;24.10;50.10;;;;;;4971499;28;20202;-57
2022/03/01 05:10:20;;;;;;;3.38;1.90;;;24.10;50.10;;;;;;4970361;28;20190;-56
2022/03/01 05:12:52;;;;;;;4.72;1.85;;;24.20;50.20;;;;;;4970926;28;20257;-53
2022/03/01 05:15:24;;;;;;;3.78;1.45;;;24.10;50.10;;;;;;4970026;28;20280;-56
2022/03/01 05:17:54;;;;;;;4.15;2.05;;;24.20;50.20;;;;;;4970819;28;20253;-55
2022/03/01 05:20:25;;;;;;;2.58;1.50;;;24.20;50.20;;;;;;4969818;28;20237;-58
2022/03/01 05:22:58;;;;;;;2.88;1.65;;;24.20;50.00;;;;;;4969954;28;20788;-56
2022/03/01 05:25:29;;;;;;;3.85;1.42;;;24.20;49.90;;;;;;4969937;28;20202;-56
2022/03/01 05:28:00;;;;;;;4.32;1.95;;;24.20;49.80;;;;;;4969843;28;20257;-55
2022/03/01 05:30:30;;;;;;;3.75;1.65;;;24.20;49.80;;;;;;4970296;28;20206;-56
2022/03/01 05:33:01;;;;;;;4.72;1.90;;;24.20;49.80;;;;;;4970181;28;20202;-56
2022/03/01 05:35:33;;;;;;;4.72;1.85;;;24.20;49.70;;;;;;4970357;28;20657;-57
2022/03/01 05:38:09;;;;;;;4.15;1.88;;;24.20;49.70;;;;;;4970666;28;20289;-57
2022/03/01 05:40:40;;;;;;;3.13;1.67;;;24.20;49.70;;;;;;4970715;28;20205;-56
2022/03/01 05:43:11;;;;;;;3.80;1.73;;;24.20;49.70;;;;;;4970070;28;20233;-56
2022/03/01 05:45:42;;;;;;;3.00;1.77;;;24.20;49.70;;;;;;4970287;28;20210;-54
2022/03/01 05:48:13;;;;;;;3.75;1.60;;;24.20;49.70;;;;;;4969559;28;20785;-56
2022/03/01 05:50:43;;;;;;;3.58;1.65;;;24.20;49.70;;;;;;4970495;28;20257;-55
2022/03/01 05:53:16;;;;;;;4.45;1.88;;;24.20;49.80;;;;;;4970271;28;20643;-56
2022/03/01 05:55:46;;;;;;;4.30;1.88;;;24.20;49.80;;;;;;4969056;28;20215;-53
2022/03/01 05:58:17;;;;;;;3.00;1.45;;;24.20;49.90;;;;;;4970229;28;20198;-54
2022/03/01 06:00:48;;;;;;;3.55;1.60;;;24.20;49.80;;;;;;4969544;28;20694;-55
2022/03/01 06:03:18;;;;;;;4.32;1.73;;;24.20;49.70;;;;;;4970353;28;20281;-56
2022/03/01 06:05:50;;;;;;;4.03;1.65;;;24.20;49.70;;;;;;4969782;28;20222;-56
2022/03/01 06:08:23;;;;;;;3.78;1.83;;;24.20;49.70;;;;;;4970636;28;20268;-57
2022/03/01 06:10:54;;;;;;;3.17;1.48;;;24.20;49.70;;;;;;4969423;28;20218;-56
2022/03/01 06:13:24;;;;;;;3.88;1.70;;;24.20;49.80;;;;;;4969883;28;20845;-56
2022/03/01 06:15:55;;;;;;;3.10;1.65;;;24.20;49.80;;;;;;4968883;28;20252;-55
2022/03/01 06:18:25;;;;;;;3.47;1.55;;;24.20;49.80;;;;;;4969154;28;20625;-55
2022/03/01 06:20:56;;;;;;;5.05;1.75;;;24.20;49.80;;;;;;4970095;28;20889;-56
2022/03/01 06:23:29;;;;;;;3.95;1.73;;;24.10;49.80;;;;;;4969713;28;20257;-55
2022/03/01 06:25:59;;;;;;;3.42;1.65;;;24.20;49.80;;;;;;4970715;28;20198;-56
2022/03/01 06:28:30;;;;;;;3.60;1.50;;;24.20;49.80;;;;;;4970091;28;20199;-55
2022/03/01 06:31:01;;;;;;;3.03;2.03;;;24.10;49.70;;;;;;4968909;28;20229;-56
2022/03/01 06:33:31;;;;;;;4.35;1.63;;;24.20;49.80;;;;;;4969463;28;20221;-56
2022/03/01 06:36:02;;;;;;;3.65;1.58;;;24.10;49.70;;;;;;4969625;28;20202;-54
2022/03/01 06:38:35;;;;;;;3.25;1.60;;;24.10;49.80;;;;;;4968918;28;20208;-56
2022/03/01 06:41:05;;;;;;;2.05;1.45;;;24.10;49.80;;;;;;4969540;28;20229;-54
2022/03/01 06:43:36;;;;;;;2.08;1.55;;;24.10;49.80;;;;;;4970886;28;20896;-58
2022/03/01 06:46:06;;;;;;;3.80;1.50;;;24.10;49.80;;;;;;4969675;28;20198;-55
2022/03/01 06:48:37;;;;;;;3.50;1.80;;;24.10;49.80;;;;;;4970726;28;20198;-55
2022/03/01 06:51:08;;;;;;;3.13;1.70;;;24.10;49.80;;;;;;4951734;28;20777;-56
2022/03/01 06:53:41;;;;;;;2.83;1.63;;;24.10;49.70;;;;;;4953100;28;20289;-56
2022/03/01 06:56:12;;;;;;;2.60;1.50;;;24.10;49.70;;;;;;4970346;28;20209;-56
2022/03/01 06:58:43;;;;;;;2.17;1.50;;;24.10;49.80;;;;;;4970195;28;20926;-57
2022/03/01 07:01:13;;;;;;;3.10;1.60;;;24.00;49.70;;;;;;4970689;28;20281;-56
2022/03/01 07:03:44;;;;;;;2.83;1.30;;;24.00;49.80;;;;;;4970806;28;20313;-55
2022/03/01 07:06:15;;;;;;;4.05;1.52;;;24.00;49.80;;;;;;4970752;28;20194;-56
2022/03/01 07:08:47;;;;;;;3.97;1.65;;;24.00;49.80;;;;;;4970348;28;20566;-56
2022/03/01 07:11:18;;;;;;;2.55;1.38;;;24.00;49.80;;;;;;4970540;28;20226;-55
2022/03/01 07:13:49;;;;;;;3.05;1.45;;;24.00;49.80;;;;;;4970607;28;20713;-55
2022/03/01 07:16:19;;;;;;;2.67;1.45;;;24.00;49.70;;;;;;4970948;28;20195;-56
2022/03/01 07:18:51;;;;;;;3.58;1.52;;;24.00;49.80;;;;;;4968806;28;20191;-55
2022/03/01 07:21:21;;;;;;;3.30;1.67;;;24.00;49.80;;;;;;4974327;23;20825;-53
2022/03/01 07:23:54;;;;;;;4.20;1.80;;;24.00;49.80;;;;;;4986116;28;20284;-51
2022/03/01 07:26:25;;;;;;;2.83;1.67;;;23.90;49.70;;;;;;4990077;28;20194;-50
2022/03/01 07:28:56;;;;;;;1.77;1.20;;;23.90;49.70;;;;;;4990447;28;20260;-52
2022/03/01 07:31:26;;;;;;;4.22;1.60;;;23.90;49.70;;;;;;4986002;28;20222;-56
2022/03/01 07:33:57;;;;;;;1.83;1.20;;;23.90;49.80;;;;;;4973774;28;20536;-56
2022/03/01 07:36:28;;;;;;;1.85;1.30;;;23.80;49.80;;;;;;4973880;28;20261;-53
2022/03/01 07:39:00;;;;;;;3.35;1.60;;;23.80;49.80;;;;;;4973565;28;20273;-58
2022/03/01 07:41:31;;;;;;;3.28;1.38;;;23.80;49.80;;;;;;4973542;28;20706;-50
2022/03/01 07:44:01;;;;;;;2.80;1.60;;;23.80;49.80;;;;;;4973666;28;20237;-56
2022/03/01 07:46:32;;;;;;;4.07;1.80;;;23.80;49.90;;;;;;4973612;28;20194;-55
2022/03/01 07:49:03;;;;;;;2.40;1.38;;;23.80;49.90;;;;;;4973871;28;20694;-56
2022/03/01 07:51:33;;;;;;;1.80;1.38;;;23.80;50.00;;;;;;4973945;28;20256;-54
2022/03/01 07:54:06;;;;;;;3.38;1.90;;;23.80;50.00;;;;;;4973442;28;20710;-56
2022/03/01 07:56:37;;;;;;;1.92;1.42;;;23.70;50.00;;;;;;4973464;28;20253;-54
2022/03/01 07:59:07;;;;;;;2.63;1.40;;;23.70;49.90;;;;;;4973651;28;20540;-56
2022/03/01 08:01:38;;;;;;;3.22;1.65;;;23.70;49.90;;;;;;4973358;28;20277;-55
2022/03/01 08:04:08;;;;;;;2.33;1.23;;;23.70;50.00;;;;;;4973426;28;20704;-50
2022/03/01 08:06:39;;;;;;;2.10;1.23;;;23.70;50.00;;;;;;4973297;28;20625;-56
2022/03/01 08:09:12;;;;;;;3.25;1.70;;;23.70;50.00;;;;;;4972859;28;20488;-57
2022/03/01 08:11:42;;;;;;;2.33;1.63;;;23.60;50.00;;;;;;4972679;28;20735;-51
2022/03/01 08:14:13;;;;;;;2.33;1.35;;;23.60;50.00;;;;;;4973180;28;20202;-55
2022/03/01 08:16:43;;;;;;;2.75;1.40;;;23.60;50.00;;;;;;4973489;28;20662;-54
2022/03/01 08:19:14;;;;;;;3.88;1.77;;;23.60;50.00;;;;;;4973214;28;20254;-57
2022/03/01 08:21:45;;;;;;;2.55;1.30;;;23.50;50.00;;;;;;4994201;23;20272;-57
2022/03/01 08:24:17;;;;;;;2.45;1.23;;;23.50;50.10;;;;;;4992511;28;20303;-57
2022/03/01 08:26:49;;;;;;;2.15;1.45;;;23.50;50.10;;;;;;4992561;28;20657;-54
2022/03/01 08:29:19;;;;;;;2.38;1.20;;;23.50;50.10;;;;;;4987392;28;20649;-52
2022/03/01 08:31:50;;;;;;;2.15;1.42;;;23.50;50.10;;;;;;4980970;28;20277;-53
2022/03/01 08:34:21;;;;;;;1.83;1.30;;;23.50;50.20;;;;;;4971165;28;20194;-56
2022/03/01 08:36:52;;;;;;;2.22;1.45;;;23.50;50.20;;;;;;4971348;28;20190;-54
2022/03/01 08:39:24;;;;;;;3.25;1.48;;;23.50;50.20;;;;;;4971155;28;20194;-54
2022/03/01 08:41:55;;;;;;;2.55;1.35;;;23.50;50.20;;;;;;4971267;28;20631;-55
2022/03/01 08:44:26;;;;;;;1.55;1.08;;;23.40;50.20;;;;;;4971175;28;21444;-56
2022/03/01 08:46:56;;;;;;;2.55;1.38;;;23.40;50.20;;;;;;4970813;28;20202;-50
2022/03/01 08:49:27;;;;;;;1.75;1.30;;;23.40;50.20;;;;;;4970533;28;20202;-56
2022/03/01 08:51:57;;;;;;;2.95;1.70;;;23.40;50.30;;;;;;4970741;28;20265;-52
2022/03/01 08:54:30;;;;;;;2.47;1.13;;;23.40;50.30;;;;;;4970135;28;20253;-56
2022/03/01 08:57:00;;;;;;;2.53;1.25;;;23.40;50.30;;;;;;4971274;28;20199;-55
2022/03/01 08:59:31;;;;;;;3.75;1.40;;;23.40;50.30;;;;;;4971369;28;20198;-52
2022/03/01 09:02:02;;;;;;;2.10;1.35;;;23.30;50.30;;;;;;4970419;28;20222;-55
2022/03/01 09:04:32;;;;;;;2.15;1.40;;;23.30;50.30;;;;;;4970299;28;20222;-55
2022/03/01 09:07:04;;;;;;;2.63;1.50;;;23.30;50.30;;;;;;4970618;28;20202;-56
2022/03/01 09:09:36;;;;;;;2.17;1.38;;;23.30;50.40;;;;;;4970356;28;20762;-56
2022/03/01 09:12:07;;;;;;;2.55;1.30;;;23.30;50.40;;;;;;4969656;28;20226;-52
2022/03/01 09:14:38;;;;;;;3.08;1.50;;;23.20;50.40;;;;;;4970715;28;20627;-54
2022/03/01 09:17:09;;;;;;;4.10;1.60;;;23.20;50.30;;;;;;4969880;28;20202;-56
2022/03/01 09:19:39;;;;;;;2.95;1.30;;;23.20;50.40;;;;;;4970641;28;20544;-56
2022/03/01 09:22:10;;;;;;;2.25;1.20;;;23.10;50.40;;;;;;4983400;23;20237;-56
2022/03/01 09:24:42;;;;;;;2.80;1.33;;;23.20;50.40;;;;;;4971021;28;20288;-56
2022/03/01 09:27:13;;;;;;;1.77;1.20;;;23.20;50.40;;;;;;4969946;28;20677;-54
2022/03/01 09:29:44;;;;;;;1.90;1.48;;;23.10;50.40;;;;;;4969735;28;20256;-57
2022/03/01 09:32:16;;;;;;;3.47;1.42;;;23.10;50.40;;;;;;4970124;28;20218;-57
2022/03/01 09:34:47;;;;;;;2.10;1.25;;;23.10;50.50;;;;;;4969450;28;20202;-57
2022/03/01 09:37:17;;;;;;;2.72;1.40;;;23.10;50.50;;;;;;4970714;28;20206;-57
2022/03/01 09:39:50;;;;;;;2.15;1.10;;;23.10;50.50;;;;;;4969788;28;20198;-55
2022/03/01 09:42:21;;;;;;;2.30;1.10;;;23.10;50.50;;;;;;4970355;28;20218;-56
2022/03/01 09:44:51;;;;;;;1.92;1.30;;;23.10;50.50;;;;;;4970148;28;20222;-56
2022/03/01 09:47:22;;;;;;;2.40;1.40;;;23.00;50.50;;;;;;4970470;28;20225;-56
2022/03/01 09:49:53;;;;;;;2.20;1.13;;;23.00;50.50;;;;;;4970549;28;20206;-57
2022/03/01 09:52:24;;;;;;;2.58;1.27;;;23.00;50.50;;;;;;4969530;28;20270;-56
2022/03/01 09:54:56;;;;;;;1.65;1.08;;;23.00;50.60;;;;;;4969811;28;20249;-57
2022/03/01 09:57:27;;;;;;;2.88;1.52;;;22.90;50.50;;;;;;4970033;28;20202;-57
2022/03/01 09:59:57;;;;;;;1.90;1.20;;;23.00;50.60;;;;;;4969766;28;20225;-57
2022/03/01 10:02:37;;;;;;;2.08;1.30;;;22.90;50.60;;;;;;4969775;28;20214;-57
2022/03/01 10:05:09;;;;;;;1.88;1.30;;;22.90;50.60;;;;;;4969480;28;20592;-57
2022/03/01 10:07:43;;;;;;;1.65;1.10;;;22.90;50.60;;;;;;4968153;28;20233;-53
2022/03/01 10:10:17;;;;;;;1.95;1.23;;;22.90;50.70;;;;;;4970163;28;20197;-56
2022/03/01 10:12:54;;;;;;;2.00;1.00;;;22.90;50.70;;;;;;4969643;28;20907;-57
2022/03/01 10:15:31;;;;;;;2.28;1.42;;;22.80;50.70;;;;;;4970100;28;20200;-57
2022/03/01 10:18:10;;;;;;;1.98;1.20;;;22.80;50.70;;;;;;4968985;28;20193;-54
2022/03/01 10:23:25;;;;;;;1.80;1.40;;;22.80;50.70;;;;;;4967404;28;20255;-53
2022/03/01 10:25:57;;;;;;;2.28;1.20;;;22.80;50.70;;;;;;4969331;28;20249;-54
2022/03/01 10:28:39;;;;;;;4.65;1.38;;;22.80;50.70;;;;;;4969198;28;20273;-56
2022/03/01 10:31:17;;;;;;;2.13;1.30;;;22.80;50.70;;;;;;4969510;28;20268;-56
2022/03/01 10:34:00;;;;;;;1.80;1.33;;;22.80;50.80;;;;;;4969299;28;20206;-54
2022/03/01 10:36:32;;;;;;;2.33;1.20;;;22.70;50.70;;;;;;4968781;28;20289;-52
2022/03/01 10:39:04;;;;;;;2.03;1.10;;;22.70;50.70;;;;;;4969320;28;20195;-54
2022/03/01 10:41:38;;;;;;;2.47;1.30;;;22.70;50.70;;;;;;4969148;28;20218;-55
2022/03/01 10:44:14;;;;;;;2.20;1.20;;;22.70;50.80;;;;;;4969371;28;20218;-51
2022/03/01 10:46:46;;;;;;;2.85;1.05;;;22.70;50.80;;;;;;4968659;28;20277;-54
2022/03/01 10:49:19;;;;;;;1.85;1.00;;;22.60;50.80;;;;;;4969183;28;20190;-50
2022/03/01 10:51:54;;;;;;;1.75;1.00;;;22.60;50.90;;;;;;4969293;28;20222;-56
2022/03/01 10:54:29;;;;;;;3.15;1.60;;;22.60;50.90;;;;;;4970050;28;20194;-57
2022/03/01 10:57:03;;;;;;;2.65;1.50;;;22.60;50.90;;;;;;4969059;28;20205;-50
2022/03/01 10:59:35;;;;;;;2.33;1.30;;;22.60;50.90;;;;;;4969185;28;20456;-53
2022/03/01 11:02:07;;;;;;;3.47;1.50;;;22.60;51.00;;;;;;4968971;28;20213;-51
2022/03/01 11:04:38;;;;;;;2.65;1.30;;;22.60;51.00;;;;;;4971756;28;20230;-49
2022/03/01 11:07:09;;;;;;;1.17;1.00;;;22.50;51.00;;;;;;4972788;28;20194;-56
2022/03/01 11:09:40;;;;;;;2.75;1.35;;;22.50;51.00;;;;;;4972451;28;20665;-54
2022/03/01 11:12:15;;;;;;;2.80;1.42;;;22.50;51.00;;;;;;4972196;28;20754;-54
2022/03/01 11:14:56;;;;;;;2.13;1.30;;;22.50;51.00;;;;;;4972858;28;20202;-55
2022/03/01 11:17:37;;;;;;;2.08;1.20;;;22.50;51.00;;;;;;4972289;28;20194;-53
2022/03/01 11:20:10;;;;;;;1.63;1.30;;;22.50;51.00;;;;;;4972797;28;20854;-58
2022/03/01 11:22:46;;;;;;;1.85;1.20;;;22.50;51.00;;;;;;4973427;28;20226;-55
2022/03/01 11:25:20;;;;;;;1.92;1.17;;;22.50;51.00;;;;;;4972171;28;20229;-55
2022/03/01 11:27:54;;;;;;;2.58;1.33;;;22.50;51.00;;;;;;4972699;28;20206;-57
2022/03/01 11:30:30;;;;;;;3.25;1.55;;;22.40;51.00;;;;;;4972414;28;20785;-54
2022/03/01 11:33:02;;;;;;;2.10;1.23;;;22.40;51.00;;;;;;4971608;28;20213;-56
2022/03/01 11:35:33;;;;;;;2.28;1.30;;;22.40;51.10;;;;;;4971662;28;20217;-56
2022/03/01 11:38:06;;;;;;;3.20;1.38;;;22.40;51.10;;;;;;4974223;28;20273;-56
2022/03/01 11:40:39;;;;;;;2.47;1.40;;;22.30;51.10;;;;;;4975662;28;20198;-55
2022/03/01 11:43:13;;;;;;;1.42;1.20;;;22.40;51.10;;;;;;4974219;28;20218;-59
2022/03/01 11:45:49;;;;;;;2.78;1.42;;;22.30;51.20;;;;;;4973649;28;20713;-56
2022/03/01 11:48:21;;;;;;;1.80;1.08;;;22.30;51.20;;;;;;4973825;28;20288;-56
2022/03/01 11:50:57;;;;;;;3.22;1.50;;;22.30;51.20;;;;;;4973788;28;20602;-55
2022/03/01 11:53:31;;;;;;;1.60;1.20;;;22.30;51.20;;;;;;4973640;28;20194;-57
2022/03/01 11:56:04;;;;;;;3.45;1.40;;;22.30;51.20;;;;;;4973595;28;20190;-56
2022/03/01 11:58:37;;;;;;;2.67;1.35;;;22.30;51.30;;;;;;4973626;28;20195;-53
2022/03/01 12:01:09;;;;;;;1.85;1.10;;;22.30;51.30;;;;;;4973733;28;20218;-58
2022/03/01 12:03:41;;;;;;;2.20;1.40;;;22.20;51.20;;;;;;4973780;28;20202;-55
2022/03/01 12:06:11;;;;;;;1.98;1.30;;;22.30;51.30;;;;;;4973030;28;20765;-55
2022/03/01 12:08:42;;;;;;;3.50;1.13;;;22.30;51.30;;;;;;4973265;28;20210;-55
2022/03/01 12:11:13;;;;;;;2.92;1.45;;;22.20;51.20;;;;;;4973539;28;20218;-57
2022/03/01 12:13:48;;;;;;;1.20;1.10;;;22.20;51.20;;;;;;4973538;28;20194;-55
2022/03/01 12:16:30;;;;;;;1.92;1.30;;;22.20;51.30;;;;;;4972972;28;20202;-54
2022/03/01 12:19:12;;;;;;;3.05;1.27;;;22.20;51.30;;;;;;4973513;28;20205;-53
2022/03/01 12:53:14;;;;;;;2.58;1.40;;;22.00;52.10;;;;;;5403422;23;20592;-58
2022/03/01 12:55:51;;;;;;;2.28;1.50;;;22.00;51.60;;;;;;4992195;28;20613;-58
2022/03/01 12:58:32;;;;;;;1.35;1.20;;;22.00;51.60;;;;;;4992117;28;20533;-56
2022/03/01 13:01:09;;;;;;;3.90;1.33;;;22.00;51.60;;;;;;4991115;28;20604;-50
2022/03/01 13:03:40;;;;;;;3.53;1.50;;;22.00;51.60;;;;;;4980789;28;20198;-55
2022/03/01 13:06:11;;;;;;;1.83;1.40;;;22.00;51.60;;;;;;4972539;28;20234;-54
2022/03/01 13:08:46;;;;;;;3.85;1.55;;;22.00;51.60;;;;;;4972401;28;20268;-56
2022/03/01 13:11:17;;;;;;;1.92;1.50;;;21.90;51.60;;;;;;4972348;28;20217;-53
2022/03/01 13:13:49;;;;;;;1.65;1.33;;;21.90;51.60;;;;;;4972323;28;20202;-55
2022/03/01 13:16:24;;;;;;;3.05;1.60;;;21.90;51.70;;;;;;4969925;28;20807;-53
2022/03/01 13:18:56;;;;;;;3.33;1.42;;;21.90;51.70;;;;;;4952892;29;20814;-52
2022/03/01 13:21:31;;;;;;;1.88;1.17;;;21.90;51.70;;;;;;4969223;23;20336;-56
2022/03/01 13:24:06;;;;;;;2.60;1.63;;;21.90;51.70;;;;;;4972308;28;20212;-56
2022/03/01 13:26:38;;;;;;;2.65;1.38;;;21.90;51.80;;;;;;4974042;28;20200;-55
2022/03/01 13:29:14;;;;;;;2.60;1.55;;;21.90;51.80;;;;;;4971246;28;20198;-56
2022/03/01 13:31:45;;;;;;;2.67;1.20;;;21.90;51.80;;;;;;4986944;28;20631;-55
2022/03/01 13:34:19;;;;;;;2.60;1.40;;;21.80;51.80;;;;;;4991396;28;20653;-57
2022/03/01 13:36:53;;;;;;;2.80;1.40;;;21.80;51.80;;;;;;4991246;28;20288;-58
2022/03/01 13:39:26;;;;;;;3.08;1.63;;;21.80;51.80;;;;;;4991325;28;20272;-52
2022/03/01 13:41:59;;;;;;;2.65;1.50;;;21.80;51.80;;;;;;4991020;28;20218;-56
2022/03/01 13:44:32;;;;;;;1.88;1.05;;;21.80;51.80;;;;;;4990988;28;20205;-54